Time;durP1;ratioP1;P1;durP2;ratioP2;P2;SDS_P1;SDS_P2;PMS_P1;PMS_P2;Temp;Humidity;BMP_temperature;BMP_pressure;BME280_temperature;BME280_humidity;BME280_pressure;Samples;Min_cycle;Max_cycle;Signal;HPM_P1;HPM_P2
2022/10/21 00:01:51;;;;;;;;;;;;;;;13.56;100.00;100753.84;5036354;28;20023;-43
2022/10/21 00:04:16;;;;;;;;;;;;;;;13.55;100.00;100753.00;5036493;28;20021;-42
2022/10/21 00:06:42;;;;;;;;;;;;;;;13.54;100.00;100747.84;5037189;28;19921;-44
2022/10/21 00:09:07;;;;;;;;;;;;;;;13.53;100.00;100743.50;5032753;28;20086;-47
2022/10/21 00:11:32;;;;;;;;;;;;;;;13.51;100.00;100735.63;5036152;28;19999;-44
2022/10/21 00:13:57;;;;;;;;;;;;;;;13.48;100.00;100732.47;5037170;28;19917;-44
2022/10/21 00:16:23;;;;;;;;;;;;;;;13.45;100.00;100739.03;5036767;28;19917;-45
2022/10/21 00:18:48;;;;;;;;;;;;;;;13.39;100.00;100729.88;5037576;28;19935;-42
2022/10/21 00:21:15;;;;;;;;;;;;;;;13.36;100.00;100732.91;5036296;28;19987;-47
2022/10/21 00:23:41;;;;;;;;;;;;;;;13.32;100.00;100723.53;5036313;28;19929;-43
2022/10/21 00:26:06;;;;;;;;;;;;;;;13.30;100.00;100725.56;5037440;28;20181;-44
2022/10/21 00:28:32;;;;;;;;;;;;;;;13.27;100.00;100720.56;5034525;28;20448;-46
2022/10/21 00:30:57;;;;;;;;;;;;;;;13.23;100.00;100717.41;5031413;28;19963;-46
2022/10/21 00:33:22;;;;;;;;;;;;;;;13.22;100.00;100705.03;5041915;28;19924;-47
2022/10/21 00:35:51;;;;;;;;;;;;;;;13.22;100.00;100704.16;5040014;28;19917;-46
2022/10/21 00:38:16;;;;;;;;;;;;;;;13.21;100.00;100714.06;5034905;28;19946;-47
2022/10/21 00:40:41;;;;;;;;;;;;;;;13.21;100.00;100716.75;5034709;28;20031;-43
2022/10/21 00:43:08;;;;;;;;;;;;;;;13.20;100.00;100717.78;5041529;28;19920;-47
2022/10/21 00:45:33;;;;;;;;;;;;;;;13.21;100.00;100708.72;5039577;28;19952;-46
2022/10/21 00:48:01;;;;;;;;;;;;;;;13.22;100.00;100717.56;5040275;28;19952;-44
2022/10/21 00:50:30;;;;;;;;;;;;;;;13.21;100.00;100718.63;5028219;28;19917;-47
2022/10/21 00:52:56;;;;;;;;;;;;;;;13.21;100.00;100722.13;5022568;28;19918;-43
2022/10/21 00:55:21;;;;;;;;;;;;;;;13.21;100.00;100714.06;5034688;28;19921;-44
2022/10/21 00:57:47;;;;;;;;;;;;;;;13.23;100.00;100719.25;5040311;28;19923;-43
2022/10/21 01:00:12;;;;;;;;;;;;;;;13.22;100.00;100713.06;5021536;28;20299;-44
2022/10/21 01:02:37;;;;;;;;;;;;;;;13.21;100.00;100711.41;5039464;28;19975;-43
2022/10/21 01:05:03;;;;;;;;;;;;;;;13.19;100.00;100701.88;5039721;28;20379;-41
2022/10/21 01:07:28;;;;;;;;;;;;;;;13.16;100.00;100702.25;5022707;28;20341;-46
2022/10/21 01:09:53;;;;;;;;;;;;;;;13.12;100.00;100695.56;5038810;28;19925;-47
2022/10/21 01:12:39;;;;;;;;;;;;;;;13.07;100.00;100688.91;5017534;28;19916;-45
2022/10/21 01:15:09;;;;;;;;;;;;;;;13.05;100.00;100676.66;4999061;28;20685;-44
2022/10/21 01:17:34;;;;;;;;;;;;;;;13.01;100.00;100684.25;5002496;28;19959;-46
2022/10/21 01:20:00;;;;;;;;;;;;;;;12.98;100.00;100681.09;5021640;28;20287;-43
2022/10/21 01:22:42;;;;;;;;;;;;;;;12.94;100.00;100677.13;5038793;28;19923;-44
2022/10/21 01:25:31;;;;;;;;;;;;;;;12.91;100.00;100675.63;5039565;28;19920;-45
2022/10/21 01:27:59;;;;;;;;;;;;;;;12.86;100.00;100667.28;5040556;28;19913;-45
2022/10/21 01:30:27;;;;;;;;;;;;;;;12.82;100.00;100664.16;5036015;28;19952;-42
2022/10/21 01:32:58;;;;;;;;;;;;;;;12.79;100.00;100661.00;5040482;28;19936;-44
2022/10/21 01:35:27;;;;;;;;;;;;;;;12.75;100.00;100654.34;5032467;28;19928;-43
2022/10/21 01:37:59;;;;;;;;;;;;;;;12.72;100.00;100657.38;5037417;28;19923;-47
2022/10/21 01:40:33;;;;;;;;;;;;;;;12.69;100.00;100650.50;5038835;28;19917;-45
2022/10/21 01:43:24;;;;;;;;;;;;;;;12.65;100.00;100655.41;5038805;28;20461;-42
2022/10/21 01:45:52;;;;;;;;;;;;;;;12.62;100.00;100652.25;5030164;28;19917;-42
2022/10/21 01:48:20;;;;;;;;;;;;;;;12.60;100.00;100655.09;5040194;28;19913;-42
2022/10/21 01:50:52;;;;;;;;;;;;;;;12.59;100.00;100636.53;5038338;28;20011;-43
2022/10/21 01:53:17;;;;;;;;;;;;;;;12.57;100.00;100633.22;5037381;28;19951;-44
2022/10/21 01:55:44;;;;;;;;;;;;;;;12.55;100.00;100632.56;5031131;28;20416;-44
2022/10/21 01:58:14;;;;;;;;;;;;;;;12.51;100.00;100626.72;5036300;28;19928;-42
2022/10/21 02:00:40;;;;;;;;;;;;;;;12.47;100.00;100628.94;5039196;28;19929;-44
2022/10/21 02:03:07;;;;;;;;;;;;;;;12.45;100.00;100620.22;5039490;28;19961;-45
2022/10/21 02:05:33;;;;;;;;;;;;;;;12.43;100.00;100619.56;5034589;28;19925;-43
2022/10/21 02:07:59;;;;;;;;;;;;;;;12.43;100.00;100613.41;5021293;28;20317;-44
2022/10/21 02:10:26;;;;;;;;;;;;;;;12.40;100.00;100611.88;5012447;28;20395;-46
2022/10/21 02:12:53;;;;;;;;;;;;;;;12.39;100.00;100614.75;5039934;28;20379;-45
2022/10/21 02:15:20;;;;;;;;;;;;;;;12.36;100.00;100613.28;5037930;28;19917;-44
2022/10/21 02:17:48;;;;;;;;;;;;;;;12.34;100.00;100611.78;5034942;28;19958;-45
2022/10/21 02:20:15;;;;;;;;;;;;;;;12.30;100.00;100614.81;5028374;28;20492;-41
2022/10/21 02:22:42;;;;;;;;;;;;;;;12.25;100.00;100611.84;5038615;28;20384;-41
2022/10/21 02:25:09;;;;;;;;;;;;;;;12.27;100.00;100607.16;5036786;28;20364;-44
2022/10/21 02:27:35;;;;;;;;;;;;;;;12.25;100.00;100600.28;5037238;28;20321;-43
2022/10/21 02:30:00;;;;;;;;;;;;;;;12.24;100.00;100590.59;5036639;28;20022;-45
2022/10/21 02:32:45;;;;;;;;;;;;;;;12.23;100.00;100588.94;5038607;28;19920;-43
2022/10/21 02:35:16;;;;;;;;;;;;;;;12.21;100.00;100597.13;5037639;28;20364;-45
2022/10/21 02:37:44;;;;;;;;;;;;;;;12.21;100.00;100604.34;5039168;28;20019;-46
2022/10/21 02:40:15;;;;;;;;;;;;;;;12.20;100.00;100600.00;5033196;28;20028;-45
2022/10/21 02:42:46;;;;;;;;;;;;;;;12.21;100.00;100613.19;5037462;28;19917;-46
2022/10/21 02:45:12;;;;;;;;;;;;;;;12.20;100.00;100603.50;5032885;28;19920;-46
2022/10/21 02:47:38;;;;;;;;;;;;;;;12.21;100.00;100607.84;5039214;28;20287;-43
2022/10/21 02:50:04;;;;;;;;;;;;;;;12.18;100.00;100599.34;5035872;28;19931;-44
2022/10/21 02:52:29;;;;;;;;;;;;;;;12.21;100.00;100607.03;5037415;28;20142;-43
2022/10/21 02:54:54;;;;;;;;;;;;;;;12.22;100.00;100612.22;5036482;28;19936;-45
2022/10/21 02:57:19;;;;;;;;;;;;;;;12.21;100.00;100601.66;5037655;28;19920;-46
2022/10/21 02:59:44;;;;;;;;;;;;;;;12.20;100.00;100602.66;5037495;28;19983;-43
2022/10/21 03:02:10;;;;;;;;;;;;;;;12.15;100.00;100586.31;5038744;28;19962;-43
2022/10/21 03:04:35;;;;;;;;;;;;;;;12.18;100.00;100584.09;5037899;28;19960;-45
2022/10/21 03:07:00;;;;;;;;;;;;;;;12.16;100.00;100588.81;5038272;28;19940;-44
2022/10/21 03:09:25;;;;;;;;;;;;;;;12.12;100.00;100574.13;5037155;28;19925;-43
2022/10/21 03:11:50;;;;;;;;;;;;;;;12.10;100.00;100574.31;5037679;28;19987;-47
2022/10/21 03:14:16;;;;;;;;;;;;;;;12.09;100.00;100580.66;5033062;28;20383;-45
2022/10/21 03:16:41;;;;;;;;;;;;;;;12.06;100.00;100582.84;5037517;28;19917;-46
2022/10/21 03:19:06;;;;;;;;;;;;;;;12.04;100.00;100579.53;5038127;28;20015;-47
2022/10/21 03:21:31;;;;;;;;;;;;;;;12.01;100.00;100579.88;5036949;28;19920;-43
2022/10/21 03:23:56;;;;;;;;;;;;;;;11.99;100.00;100579.22;5036510;28;19925;-44
2022/10/21 03:26:22;;;;;;;;;;;;;;;11.96;100.00;100583.06;5037471;28;19916;-48
2022/10/21 03:28:47;;;;;;;;;;;;;;;11.92;100.00;100585.28;5036444;28;19932;-44
2022/10/21 03:31:12;;;;;;;;;;;;;;;11.90;100.00;100584.59;5036556;28;19920;-44
2022/10/21 03:33:37;;;;;;;;;;;;;;;11.88;100.00;100591.97;5039260;28;19913;-43
2022/10/21 03:36:03;;;;;;;;;;;;;;;11.86;100.00;100579.75;5036615;28;19917;-42
2022/10/21 03:38:28;;;;;;;;;;;;;;;11.86;100.00;100583.28;5036478;28;20193;-43
2022/10/21 03:40:53;;;;;;;;;;;;;;;11.84;100.00;100585.28;5036598;28;19917;-42
2022/10/21 03:43:18;;;;;;;;;;;;;;;11.82;100.00;100584.63;5038553;28;19913;-45
2022/10/21 03:45:44;;;;;;;;;;;;;;;11.82;100.00;100589.16;5035698;28;20611;-43
2022/10/21 03:48:09;;;;;;;;;;;;;;;11.80;100.00;100580.47;5037372;28;21423;-45
2022/10/21 03:50:34;;;;;;;;;;;;;;;11.76;100.00;100571.94;5032559;28;19940;-42
2022/10/21 03:52:59;;;;;;;;;;;;;;;11.74;100.00;100566.78;5037002;28;20039;-46
2022/10/21 03:55:25;;;;;;;;;;;;;;;11.74;100.00;100568.63;5037368;28;20082;-44
2022/10/21 03:57:51;;;;;;;;;;;;;;;11.73;100.00;100577.66;5038029;28;19923;-45
2022/10/21 04:00:16;;;;;;;;;;;;;;;11.73;100.00;100573.16;5028414;28;19937;-46
2022/10/21 04:02:41;;;;;;;;;;;;;;;11.72;100.00;100571.47;5038146;28;19949;-45
2022/10/21 04:05:07;;;;;;;;;;;;;;;11.71;100.00;100569.81;5037225;28;19965;-42
2022/10/21 04:07:32;;;;;;;;;;;;;;;11.71;100.00;100568.97;5041538;28;19923;-44
2022/10/21 04:09:57;;;;;;;;;;;;;;;11.70;100.00;100578.84;5040122;28;19955;-42
2022/10/21 04:12:23;;;;;;;;;;;;;;;11.69;100.00;100576.34;5041765;28;20287;-45
2022/10/21 04:14:48;;;;;;;;;;;;;;;11.68;100.00;100580.03;5039996;28;19997;-46
2022/10/21 04:17:13;;;;;;;;;;;;;;;11.67;100.00;100581.03;5040115;28;19920;-45
2022/10/21 04:19:38;;;;;;;;;;;;;;;11.65;100.00;100575.84;5021965;28;19921;-43
2022/10/21 04:22:04;;;;;;;;;;;;;;;11.65;100.00;100586.56;5038992;28;19917;-43
2022/10/21 04:24:29;;;;;;;;;;;;;;;11.64;100.00;100589.41;5040306;28;20397;-45
2022/10/21 04:26:54;;;;;;;;;;;;;;;11.64;100.00;100576.03;5040349;28;19912;-46
2022/10/21 04:29:19;;;;;;;;;;;;;;;11.63;100.00;100580.56;5041251;28;20297;-47
2022/10/21 04:31:44;;;;;;;;;;;;;;;11.64;100.00;100576.03;5022722;28;19917;-42
2022/10/21 04:34:10;;;;;;;;;;;;;;;11.64;100.00;100578.69;5040218;28;19927;-47
2022/10/21 04:36:35;;;;;;;;;;;;;;;11.64;100.00;100579.53;5021919;28;20425;-45
2022/10/21 04:39:00;;;;;;;;;;;;;;;11.63;100.00;100567.19;5027022;28;20306;-45
2022/10/21 04:41:25;;;;;;;;;;;;;;;11.63;100.00;100571.72;5040157;28;20000;-47
2022/10/21 04:43:50;;;;;;;;;;;;;;;11.58;100.00;100565.03;5039826;28;20419;-44
2022/10/21 04:46:16;;;;;;;;;;;;;;;11.56;100.00;100580.41;5039794;28;19964;-45
2022/10/21 04:48:41;;;;;;;;;;;;;;;11.55;100.00;100583.25;5038662;28;20010;-47
2022/10/21 04:51:06;;;;;;;;;;;;;;;11.54;100.00;100585.13;5038161;28;20229;-48
2022/10/21 04:53:32;;;;;;;;;;;;;;;11.53;100.00;100585.28;5039084;28;19913;-46
2022/10/21 04:55:57;;;;;;;;;;;;;;;11.52;100.00;100587.13;5041023;28;20403;-44
2022/10/21 04:58:22;;;;;;;;;;;;;;;11.53;100.00;100588.78;5033969;28;19919;-44
2022/10/21 05:00:48;;;;;;;;;;;;;;;11.53;100.00;100579.94;5037019;28;19925;-43
2022/10/21 05:03:13;;;;;;;;;;;;;;;11.54;100.00;100577.09;5037181;28;19913;-46
2022/10/21 05:05:38;;;;;;;;;;;;;;;11.53;100.00;100582.59;5039642;28;20329;-44
2022/10/21 05:08:03;;;;;;;;;;;;;;;11.52;100.00;100580.94;5037384;28;19925;-41
2022/10/21 05:10:29;;;;;;;;;;;;;;;11.52;100.00;100586.28;5030737;28;19925;-44
2022/10/21 05:12:55;;;;;;;;;;;;;;;11.51;100.00;100587.31;5039819;28;20142;-47
2022/10/21 05:15:20;;;;;;;;;;;;;;;11.51;100.00;100579.28;5039175;28;19921;-44
2022/10/21 05:17:45;;;;;;;;;;;;;;;11.49;100.00;100578.59;5038569;28;19912;-47
2022/10/21 05:20:11;;;;;;;;;;;;;;;11.49;100.00;100583.94;5037444;28;19970;-45
2022/10/21 05:22:36;;;;;;;;;;;;;;;11.49;100.00;100586.63;5037708;28;20016;-43
2022/10/21 05:25:01;;;;;;;;;;;;;;;11.48;100.00;100584.97;5039443;28;20373;-44
2022/10/21 05:27:26;;;;;;;;;;;;;;;11.48;100.00;100587.66;5038220;28;20376;-45
2022/10/21 05:29:52;;;;;;;;;;;;;;;11.46;100.00;100578.97;5036328;28;20547;-44
2022/10/21 05:32:17;;;;;;;;;;;;;;;11.45;100.00;100569.28;5033194;28;20346;-47
2022/10/21 05:34:42;;;;;;;;;;;;;;;11.44;100.00;100562.25;5037850;28;20028;-44
2022/10/21 05:37:07;;;;;;;;;;;;;;;11.44;100.00;100551.53;5033143;28;20260;-44
2022/10/21 05:39:33;;;;;;;;;;;;;;;11.42;100.00;100553.56;5033933;28;19917;-45
2022/10/21 05:41:58;;;;;;;;;;;;;;;11.39;100.00;100544.88;5037604;28;19917;-43
2022/10/21 05:44:23;;;;;;;;;;;;;;;11.39;100.00;100546.75;5020307;28;19952;-44
2022/10/21 05:46:48;;;;;;;;;;;;;;;11.38;100.00;100537.88;5038886;28;19916;-44
2022/10/21 05:49:13;;;;;;;;;;;;;;;11.38;100.00;100537.03;5038780;28;19913;-45
2022/10/21 05:51:39;;;;;;;;;;;;;;;11.36;100.00;100534.53;5038813;28;19913;-46
2022/10/21 05:54:04;;;;;;;;;;;;;;;11.36;100.00;100539.06;5038479;28;20221;-41
2022/10/21 05:56:30;;;;;;;;;;;;;;;11.35;100.00;100537.38;5038251;28;20179;-43
2022/10/21 05:58:55;;;;;;;;;;;;;;;11.34;100.00;100535.72;5034971;28;19916;-44
2022/10/21 06:01:20;;;;;;;;;;;;;;;11.35;100.00;100537.38;5038254;28;20012;-43
2022/10/21 06:03:45;;;;;;;;;;;;;;;11.35;100.00;100540.06;5038459;28;19913;-44
2022/10/21 06:06:10;;;;;;;;;;;;;;;11.36;100.00;100533.72;5037298;28;19920;-46
2022/10/21 06:08:37;;;;;;;;;;;;;;;11.35;100.00;100546.25;5030686;28;20394;-46
2022/10/21 06:11:14;;;;;;;;;;;;;;;11.34;100.00;100538.41;5031585;28;20300;-43
2022/10/21 06:13:39;;;;;;;;;;;;;;;11.34;100.00;100544.59;5039502;28;19919;-44
2022/10/21 06:16:05;;;;;;;;;;;;;;;11.34;100.00;100533.06;5036534;28;20383;-45
2022/10/21 06:18:30;;;;;;;;;;;;;;;11.34;100.00;100530.38;5038198;28;19921;-45
2022/10/21 06:20:55;;;;;;;;;;;;;;;11.35;100.00;100535.56;5036641;28;19913;-42
2022/10/21 06:23:21;;;;;;;;;;;;;;;11.34;100.00;100543.75;5038298;28;20315;-43
2022/10/21 06:25:55;;;;;;;;;;;;;;;11.34;100.00;100536.56;5038469;28;19963;-41
2022/10/21 06:28:20;;;;;;;;;;;;;;;11.36;100.00;100541.72;5031032;28;19923;-45
2022/10/21 06:30:46;;;;;;;;;;;;;;;11.35;100.00;100540.91;5020046;28;19917;-42
2022/10/21 06:33:11;;;;;;;;;;;;;;;11.37;100.00;100540.72;5036887;28;19917;-44
2022/10/21 06:35:36;;;;;;;;;;;;;;;11.38;100.00;100545.88;5036271;28;19939;-45
2022/10/21 06:38:01;;;;;;;;;;;;;;;11.39;100.00;100538.72;5034190;28;19917;-43
2022/10/21 06:40:26;;;;;;;;;;;;;;;11.41;100.00;100541.22;5038113;28;20315;-43
2022/10/21 06:42:51;;;;;;;;;;;;;;;11.43;100.00;100533.84;5038216;28;20013;-44
2022/10/21 06:45:17;;;;;;;;;;;;;;;11.46;100.00;100541.53;5035936;28;19917;-43
2022/10/21 06:47:42;;;;;;;;;;;;;;;11.50;100.00;100545.50;5037230;28;19920;-43
2022/10/21 06:50:07;;;;;;;;;;;;;;;11.52;100.00;100540.81;5034465;28;19921;-50
2022/10/21 06:52:32;;;;;;;;;;;;;;;11.54;100.00;100565.53;5037453;28;19924;-44
2022/10/21 06:54:58;;;;;;;;;;;;;;;11.55;100.00;100564.53;5033154;28;20008;-43
2022/10/21 06:57:23;;;;;;;;;;;;;;;11.58;100.00;100573.03;5039004;28;20335;-45
2022/10/21 06:59:48;;;;;;;;;;;;;;;11.58;100.00;100575.72;5036273;28;20327;-44
2022/10/21 07:02:13;;;;;;;;;;;;;;;11.61;100.00;100584.41;5032595;28;20068;-43
2022/10/21 07:04:43;;;;;;;;;;;;;;;11.64;100.00;100600.09;5036636;28;19928;-41
2022/10/21 07:07:08;;;;;;;;;;;;;;;11.68;100.00;100596.09;5033490;28;19917;-45
2022/10/21 07:09:33;;;;;;;;;;;;;;;11.72;100.00;100597.41;5033518;28;20804;-43
2022/10/21 07:11:59;;;;;;;;;;;;;;;11.74;100.00;100595.38;5034787;28;20347;-46
2022/10/21 07:14:24;;;;;;;;;;;;;;;11.83;100.00;100593.47;5036412;28;20383;-43
2022/10/21 07:16:50;;;;;;;;;;;;;;;11.90;100.00;100610.53;5035784;28;19921;-42
2022/10/21 07:19:15;;;;;;;;;;;;;;;11.95;100.00;100610.88;5033648;28;20062;-44
2022/10/21 07:21:40;;;;;;;;;;;;;;;12.01;100.00;100603.97;5034833;28;19925;-43
2022/10/21 07:24:05;;;;;;;;;;;;;;;12.07;100.00;100608.63;5035474;28;19917;-47
2022/10/21 07:26:32;;;;;;;;;;;;;;;12.13;100.00;100610.56;5035702;28;19970;-45
2022/10/21 07:28:59;;;;;;;;;;;;;;;12.19;100.00;100617.09;5035836;28;20295;-42
2022/10/21 07:31:24;;;;;;;;;;;;;;;12.25;100.00;100614.53;5036199;28;20050;-45
2022/10/21 07:33:50;;;;;;;;;;;;;;;12.33;100.00;100621.66;5033225;28;19921;-43
2022/10/21 07:36:17;;;;;;;;;;;;;;;12.39;100.00;100626.31;5037411;28;20010;-44
2022/10/21 07:38:45;;;;;;;;;;;;;;;12.46;100.00;100624.59;5028837;28;20380;-46
2022/10/21 07:41:29;;;;;;;;;;;;;;;12.53;100.00;100623.88;5031778;28;19928;-43
2022/10/21 07:43:54;;;;;;;;;;;;;;;12.59;100.00;100625.81;5027497;28;19927;-43
2022/10/21 07:46:20;;;;;;;;;;;;;;;12.65;100.00;100627.78;5038497;28;19916;-42
2022/10/21 07:48:45;;;;;;;;;;;;;;;12.69;100.00;100621.03;5035751;28;19916;-46
2022/10/21 07:51:12;;;;;;;;;;;;;;;12.73;100.00;100627.72;5034781;28;20387;-44
2022/10/21 07:53:38;;;;;;;;;;;;;;;12.76;100.00;100621.16;5034732;28;20314;-44
2022/10/21 07:56:06;;;;;;;;;;;;;;;12.77;100.00;100626.34;5023265;28;20025;-44
2022/10/21 07:58:31;;;;;;;;;;;;;;;12.77;100.00;100634.38;5030318;28;19924;-42
2022/10/21 08:01:01;;;;;;;;;;;;;;;12.79;100.00;100629.66;5031983;28;20334;-44
2022/10/21 08:03:26;;;;;;;;;;;;;;;12.79;100.00;100628.84;5032866;28;20260;-44
2022/10/21 08:05:52;;;;;;;;;;;;;;;12.80;100.00;100634.03;5032145;28;19967;-42
2022/10/21 08:08:20;;;;;;;;;;;;;;;12.82;100.00;100631.16;5034013;28;20303;-43
2022/10/21 08:10:45;;;;;;;;;;;;;;;12.83;100.00;100635.50;5033378;28;20415;-44
2022/10/21 08:13:11;;;;;;;;;;;;;;;12.85;100.00;100638.84;5031985;28;19917;-42
2022/10/21 08:15:40;;;;;;;;;;;;;;;12.85;100.00;100638.84;5034736;28;19932;-42
2022/10/21 08:18:05;;;;;;;;;;;;;;;12.86;100.00;100624.41;5031970;28;19916;-45
2022/10/21 08:20:30;;;;;;;;;;;;;;;12.87;100.00;100626.09;5020773;28;19944;-45
2022/10/21 08:22:55;;;;;;;;;;;;;;;12.87;100.00;100618.88;5031279;28;20150;-41
2022/10/21 08:25:20;;;;;;;;;;;;;;;12.90;100.00;100628.41;5029223;28;19921;-44
2022/10/21 08:27:46;;;;;;;;;;;;;;;12.90;100.00;100612.34;5032607;28;19917;-43
2022/10/21 08:30:11;;;;;;;;;;;;;;;12.91;100.00;100602.44;5031548;28;20399;-44
2022/10/21 08:32:36;;;;;;;;;;;;;;;12.94;100.00;100612.78;5033210;28;20439;-43
2022/10/21 08:35:01;;;;;;;;;;;;;;;12.94;100.00;100615.47;5034309;28;19921;-44
2022/10/21 08:37:26;;;;;;;;;;;;;;;12.95;100.00;100617.13;5026784;28;19929;-43
2022/10/21 08:39:51;;;;;;;;;;;;;;;12.95;100.00;100617.97;5029295;28;19970;-44
2022/10/21 08:42:17;;;;;;;;;;;;;;;12.94;100.00;100624.34;5036709;28;19925;-45
2022/10/21 08:44:48;;;;;;;;;;;;;;;12.96;100.00;100626.84;5034316;28;19956;-43
2022/10/21 08:47:13;;;;;;;;;;;;;;;12.96;100.00;100622.31;5036672;28;19952;-43
2022/10/21 08:49:38;;;;;;;;;;;;;;;12.97;100.00;100629.34;5033694;28;19952;-42
2022/10/21 08:52:08;;;;;;;;;;;;;;;12.98;100.00;100638.22;5028672;28;19913;-46
2022/10/21 08:54:46;;;;;;;;;;;;;;;13.01;100.00;100640.53;5040119;28;20363;-44
2022/10/21 08:57:11;;;;;;;;;;;;;;;13.04;100.00;100659.75;5040445;28;20181;-44
2022/10/21 08:59:40;;;;;;;;;;;;;;;13.09;100.00;100650.34;5040543;28;19951;-45
2022/10/21 09:02:12;;;;;;;;;;;;;;;13.13;100.00;100644.44;5040812;28;19932;-46
2022/10/21 09:04:47;;;;;;;;;;;;;;;13.19;100.00;100632.97;5039967;28;19917;-43
2022/10/21 09:07:12;;;;;;;;;;;;;;;13.28;100.00;100649.00;5038518;28;20375;-42
2022/10/21 09:09:42;;;;;;;;;;;;;;;13.40;100.00;100650.22;5035018;28;20129;-43
2022/10/21 09:12:20;;;;;;;;;;;;;;;13.52;100.00;100664.00;5037549;28;20024;-43
2022/10/21 09:14:56;;;;;;;;;;;;;;;13.66;100.00;100668.53;5032077;28;20279;-42
2022/10/21 09:17:24;;;;;;;;;;;;;;;13.78;100.00;100661.69;5040117;28;19931;-42
2022/10/21 09:19:56;;;;;;;;;;;;;;;13.91;100.00;100652.13;5037690;28;19967;-43
2022/10/21 09:22:33;;;;;;;;;;;;;;;14.01;100.00;100654.53;5034914;28;20154;-47
2022/10/21 09:25:02;;;;;;;;;;;;;;;14.09;100.00;100657.94;5031891;28;20111;-46
2022/10/21 09:27:28;;;;;;;;;;;;;;;14.17;100.00;100651.59;5037908;28;19948;-45
2022/10/21 09:29:55;;;;;;;;;;;;;;;14.25;100.00;100662.22;5038835;28;19972;-47
2022/10/21 09:32:26;;;;;;;;;;;;;;;14.30;100.00;100656.31;5039263;28;20627;-48
2022/10/21 09:34:54;;;;;;;;;;;;;;;14.32;100.00;100647.03;5037997;28;20007;-47
2022/10/21 09:37:25;;;;;;;;;;;;;;;14.34;100.00;100646.81;5039142;28;19920;-46
2022/10/21 09:40:00;;;;;;;;;;;;;;;14.36;100.00;100626.81;5038792;28;20131;-44
2022/10/21 09:42:25;;;;;;;;;;;;;;;14.42;100.00;100633.28;5040088;28;19928;-43
2022/10/21 09:44:50;;;;;;;;;;;;;;;14.49;100.00;100625.28;5038074;28;19920;-42
2022/10/21 09:47:20;;;;;;;;;;;;;;;14.57;100.00;100625.16;5033023;28;19924;-44
2022/10/21 09:49:47;;;;;;;;;;;;;;;14.68;100.00;100626.50;5031367;28;19913;-44
2022/10/21 09:52:13;;;;;;;;;;;;;;;14.79;100.00;100625.16;5028605;28;19933;-44
2022/10/21 09:54:40;;;;;;;;;;;;;;;14.89;100.00;100623.81;5039277;28;19928;-46
2022/10/21 09:57:12;;;;;;;;;;;;;;;15.00;100.00;100626.97;5039643;28;19927;-47
2022/10/21 09:59:49;;;;;;;;;;;;;;;15.13;100.00;100623.56;5029713;28;19932;-42
2022/10/21 10:02:15;;;;;;;;;;;;;;;15.25;100.00;100636.25;5038941;28;19912;-45
2022/10/21 10:04:40;;;;;;;;;;;;;;;15.36;100.00;100629.50;5038855;28;20555;-42
2022/10/21 10:07:37;;;;;;;;;;;;;;;15.48;100.00;100632.47;5038480;28;19921;-43
2022/10/21 10:10:22;;;;;;;;;;;;;;;15.62;100.00;100644.97;4999844;28;19981;-43
2022/10/21 10:12:55;;;;;;;;;;;;;;;15.71;100.00;100640.25;5025792;28;19913;-45
2022/10/21 10:15:22;;;;;;;;;;;;;;;15.80;100.00;100647.16;5038347;28;20552;-46
2022/10/21 10:17:48;;;;;;;;;;;;;;;15.85;100.00;100643.84;5020776;28;20325;-45
2022/10/21 10:20:15;;;;;;;;;;;;;;;15.92;100.00;100658.19;5036445;28;19924;-44
2022/10/21 10:22:42;;;;;;;;;;;;;;;15.97;100.00;100657.56;5023432;28;20298;-46
2022/10/21 10:25:10;;;;;;;;;;;;;;;16.02;100.00;100660.50;5039136;28;19913;-44
2022/10/21 10:27:36;;;;;;;;;;;;;;;16.10;100.00;100670.28;5039227;28;20324;-42
2022/10/21 10:30:01;;;;;;;;;;;;;;;16.16;100.00;100670.28;5038195;28;19917;-45
2022/10/21 10:32:30;;;;;;;;;;;;;;;16.24;100.00;100666.56;5033871;28;19933;-47
2022/10/21 10:34:57;;;;;;;;;;;;;;;16.35;100.00;100667.88;5036326;28;19916;-44
2022/10/21 10:37:24;;;;;;;;;;;;;;;16.47;100.00;100670.78;5037841;28;20066;-42
2022/10/21 10:39:51;;;;;;;;;;;;;;;16.58;100.00;100665.63;5038246;28;20394;-43
2022/10/21 10:42:30;;;;;;;;;;;;;;;16.65;100.00;100665.66;5038478;28;19913;-47
2022/10/21 10:44:58;;;;;;;;;;;;;;;16.70;100.00;100673.09;5037554;28;19943;-43
2022/10/21 10:47:33;;;;;;;;;;;;;;;16.72;100.00;100682.66;5038831;28;19913;-46
2022/10/21 10:49:59;;;;;;;;;;;;;;;16.75;100.00;100667.91;5037295;28;20271;-42
2022/10/21 10:52:25;;;;;;;;;;;;;;;16.86;100.00;100669.22;5036577;28;19916;-43
2022/10/21 10:55:08;;;;;;;;;;;;;;;16.92;100.00;100676.47;5037836;28;20417;-44
2022/10/21 10:57:34;;;;;;;;;;;;;;;16.90;100.00;100678.53;5025540;28;20335;-43
2022/10/21 11:00:03;;;;;;;;;;;;;;;16.91;100.00;100672.94;5038096;28;20002;-47
2022/10/21 11:02:40;;;;;;;;;;;;;;;16.99;100.00;100685.41;5032188;28;19948;-45
2022/10/21 11:05:24;;;;;;;;;;;;;;;17.06;100.00;100672.75;5036935;28;20031;-44
2022/10/21 11:07:51;;;;;;;;;;;;;;;17.23;100.00;100661.53;5024772;28;19912;-44
2022/10/21 11:10:25;;;;;;;;;;;;;;;17.43;100.00;100662.31;5037460;28;19916;-43
2022/10/21 11:12:51;;;;;;;;;;;;;;;17.60;100.00;100653.75;5037874;28;19928;-46
2022/10/21 11:15:16;;;;;;;;;;;;;;;17.59;100.00;100654.81;5036718;28;20309;-43
2022/10/21 11:17:52;;;;;;;;;;;;;;;17.56;100.00;100653.34;5038401;28;19999;-44
2022/10/21 11:20:24;;;;;;;;;;;;;;;17.53;100.00;100651.06;5036460;28;19917;-43
2022/10/21 11:22:49;;;;;;;;;;;;;;;17.48;100.00;100659.81;5035093;28;19972;-42
2022/10/21 11:25:21;;;;;;;;;;;;;;;17.41;100.00;100658.97;5037138;28;19965;-45
2022/10/21 11:27:59;;;;;;;;;;;;;;;17.44;100.00;100655.03;5036473;28;20476;-45
2022/10/21 11:30:44;;;;;;;;;;;;;;;17.40;100.00;100651.94;5037191;28;20069;-43
2022/10/21 11:33:22;;;;;;;;;;;;;;;17.38;100.00;100654.03;5021673;28;19921;-44
2022/10/21 11:36:06;;;;;;;;;;;;;;;17.58;100.00;100663.94;5027538;28;19912;-45
2022/10/21 11:38:45;;;;;;;;;;;;;;;17.88;100.00;100666.97;5025137;28;20402;-44
2022/10/21 11:41:17;;;;;;;;;;;;;;;18.13;100.00;100661.69;5036387;28;19959;-43
2022/10/21 11:43:54;;;;;;;;;;;;;;;18.39;100.00;100647.19;5037506;28;19916;-47
2022/10/21 11:46:22;;;;;;;;;;;;;;;18.69;100.00;100648.44;5036759;28;19913;-43
2022/10/21 11:48:53;;;;;;;;;;;;;;;18.81;100.00;100649.38;5037741;28;20429;-46
2022/10/21 11:51:25;;;;;;;;;;;;;;;18.81;100.00;100652.09;5036032;28;19958;-44
2022/10/21 11:54:09;;;;;;;;;;;;;;;18.68;100.00;100641.38;5037428;28;19955;-43
2022/10/21 11:56:42;;;;;;;;;;;;;;;18.52;100.00;100637.34;5032294;28;20009;-43
2022/10/21 11:59:19;;;;;;;;;;;;;;;18.30;100.00;100636.84;5037849;28;19924;-46
2022/10/21 12:02:03;;;;;;;;;;;;;;;18.26;100.00;100645.41;5036110;28;19916;-42
2022/10/21 12:04:28;;;;;;;;;;;;;;;18.19;100.00;100649.16;5037353;28;19912;-46
2022/10/21 12:06:59;;;;;;;;;;;;;;;18.23;100.00;100650.41;5034074;28;19917;-47
2022/10/21 12:09:50;;;;;;;;;;;;;;;18.31;100.00;100658.25;5032206;28;20462;-47
2022/10/21 12:12:18;;;;;;;;;;;;;;;18.31;100.00;100654.72;5036794;28;19928;-48
2022/10/21 12:14:49;;;;;;;;;;;;;;;18.34;100.00;100644.28;5036449;28;19913;-43
2022/10/21 12:17:16;;;;;;;;;;;;;;;18.45;100.00;100640.09;5037265;28;19927;-47
2022/10/21 12:19:44;;;;;;;;;;;;;;;18.69;100.00;100641.16;5036529;28;19959;-46
2022/10/21 12:22:11;;;;;;;;;;;;;;;18.95;100.00;100642.84;5035378;28;20261;-42
2022/10/21 12:24:37;;;;;;;;;;;;;;;19.02;100.00;100640.06;5037298;28;19912;-46
2022/10/21 12:27:16;;;;;;;;;;;;;;;19.04;100.00;100639.84;5035370;28;19959;-44
2022/10/21 12:30:00;;;;;;;;;;;;;;;19.22;100.00;100645.31;5038449;28;19913;-45
2022/10/21 12:32:34;;;;;;;;;;;;;;;19.24;100.00;100645.09;5038606;28;19912;-45